Time;durP1;ratioP1;P1;durP2;ratioP2;P2;SDS_P1;SDS_P2;PMS_P1;PMS_P2;Temp;Humidity;BMP_temperature;BMP_pressure;BME280_temperature;BME280_humidity;BME280_pressure;Samples;Min_cycle;Max_cycle;Signal;HPM_P1;HPM_P2
2023/01/23 00:02:17;;;;;;;2.63;1.58;;;2.90;99.90;;;;;;5084864;28;20043;-77
2023/01/23 00:04:43;;;;;;;2.45;1.30;;;2.90;99.90;;;;;;5050880;28;20143;-77
2023/01/23 00:07:08;;;;;;;3.25;1.27;;;2.80;99.90;;;;;;5051131;28;20559;-77
2023/01/23 00:09:34;;;;;;;4.78;2.17;;;2.90;99.90;;;;;;5050938;28;20036;-77
2023/01/23 00:12:00;;;;;;;4.82;1.55;;;2.90;99.90;;;;;;5067308;28;20116;-77
2023/01/23 00:14:25;;;;;;;3.40;1.38;;;2.90;99.90;;;;;;5055217;28;20092;-77
2023/01/23 00:16:51;;;;;;;3.38;1.63;;;2.90;99.90;;;;;;5073280;28;20129;-77
2023/01/23 00:19:16;;;;;;;2.63;1.38;;;2.90;99.90;;;;;;5073883;28;20044;-77
2023/01/23 00:21:42;;;;;;;5.30;1.98;;;2.90;99.90;;;;;;5070985;28;20410;-77
2023/01/23 00:24:10;;;;;;;2.58;1.30;;;2.90;99.90;;;;;;5068527;28;20153;-77
2023/01/23 00:26:36;;;;;;;4.13;1.70;;;2.90;99.90;;;;;;5068723;28;20052;-77
2023/01/23 00:29:03;;;;;;;8.27;2.22;;;2.90;99.90;;;;;;5060839;28;20036;-77
2023/01/23 00:31:32;;;;;;;3.45;1.90;;;2.90;99.90;;;;;;5065282;28;20043;-77
2023/01/23 00:34:00;;;;;;;4.32;1.58;;;2.90;99.90;;;;;;5072447;28;20085;-77
2023/01/23 00:36:33;;;;;;;3.20;1.70;;;2.90;99.90;;;;;;5068081;28;20085;-77
2023/01/23 00:38:59;;;;;;;4.40;2.25;;;2.90;99.90;;;;;;5070153;28;20395;-77
2023/01/23 00:41:25;;;;;;;4.38;1.88;;;2.90;99.90;;;;;;5062465;28;20043;-77
2023/01/23 00:43:51;;;;;;;3.45;1.92;;;2.90;99.90;;;;;;5069178;28;20045;-77
2023/01/23 00:46:19;;;;;;;4.70;2.38;;;2.90;99.90;;;;;;5073472;28;20044;-77
2023/01/23 00:48:45;;;;;;;3.65;1.88;;;2.90;99.90;;;;;;5074009;28;20041;-77
2023/01/23 00:51:11;;;;;;;5.45;2.60;;;2.90;99.90;;;;;;5072510;28;20036;-77
2023/01/23 00:53:37;;;;;;;3.78;1.95;;;2.90;99.90;;;;;;5074041;28;20036;-77
2023/01/23 00:56:02;;;;;;;6.53;2.33;;;2.90;99.90;;;;;;5055256;28;20051;-77
2023/01/23 00:58:28;;;;;;;4.05;2.30;;;2.90;99.90;;;;;;5069199;28;20043;-77
2023/01/23 01:00:54;;;;;;;2.65;1.52;;;2.90;99.90;;;;;;5067834;28;20374;-77
2023/01/23 01:03:19;;;;;;;4.50;2.30;;;2.90;99.90;;;;;;5069489;28;20494;-77
2023/01/23 01:05:46;;;;;;;3.58;1.90;;;2.90;99.90;;;;;;5052206;28;20044;-77
2023/01/23 01:08:11;;;;;;;4.63;1.95;;;2.90;99.90;;;;;;5070986;28;20075;-77
2023/01/23 01:10:39;;;;;;;3.17;1.77;;;2.90;99.90;;;;;;5059950;28;20191;-77
2023/01/23 01:13:05;;;;;;;4.38;2.22;;;2.90;99.90;;;;;;5052319;28;20039;-77
2023/01/23 01:15:31;;;;;;;3.50;1.95;;;2.90;99.90;;;;;;5069413;28;20400;-77
2023/01/23 01:17:57;;;;;;;4.90;1.88;;;2.90;99.90;;;;;;5067976;28;20033;-77
2023/01/23 01:20:25;;;;;;;4.10;2.72;;;2.90;99.90;;;;;;5060122;28;20075;-78
2023/01/23 01:22:51;;;;;;;2.78;1.58;;;2.90;99.90;;;;;;5057719;28;20032;-78
2023/01/23 01:25:17;;;;;;;6.32;2.15;;;2.90;99.90;;;;;;5072620;28;20055;-77
2023/01/23 01:27:44;;;;;;;5.45;2.25;;;2.90;99.90;;;;;;5068663;28;20041;-77
2023/01/23 01:30:10;;;;;;;4.15;2.10;;;2.90;99.90;;;;;;5050396;28;20040;-77
2023/01/23 01:32:41;;;;;;;3.33;2.10;;;2.90;99.90;;;;;;5057249;28;20028;-77
2023/01/23 01:35:08;;;;;;;4.65;2.28;;;2.90;99.90;;;;;;5061069;28;20512;-77
2023/01/23 01:37:36;;;;;;;4.18;1.60;;;2.90;99.90;;;;;;5071801;28;20040;-77
2023/01/23 01:40:02;;;;;;;3.65;1.80;;;2.90;99.90;;;;;;5069342;28;20048;-77
2023/01/23 01:42:27;;;;;;;4.35;1.92;;;2.90;99.90;;;;;;5074186;28;20521;-77
2023/01/23 01:44:56;;;;;;;3.60;1.90;;;2.90;99.90;;;;;;5062275;28;20068;-78
2023/01/23 01:47:22;;;;;;;2.28;1.42;;;2.90;99.90;;;;;;5059501;28;20043;-78
2023/01/23 01:49:51;;;;;;;5.65;2.63;;;2.90;99.90;;;;;;5053197;28;20049;-77
2023/01/23 01:52:19;;;;;;;5.20;1.85;;;2.90;99.90;;;;;;5070540;28;20032;-77
2023/01/23 01:54:53;;;;;;;4.45;2.10;;;2.90;99.90;;;;;;5062632;28;20502;-77
2023/01/23 01:57:34;;;;;;;5.22;2.00;;;2.90;99.90;;;;;;5066742;28;20090;-77
2023/01/23 02:00:06;;;;;;;3.60;2.05;;;2.90;99.90;;;;;;5059718;28;20299;-77
2023/01/23 02:02:39;;;;;;;3.35;1.73;;;2.90;99.90;;;;;;5074912;28;20093;-77
2023/01/23 02:05:09;;;;;;;3.97;1.75;;;3.00;99.90;;;;;;5054029;28;22451;-77
2023/01/23 02:07:42;;;;;;;2.30;1.45;;;2.90;99.90;;;;;;5071953;28;20051;-78
2023/01/23 02:10:09;;;;;;;4.82;2.13;;;2.90;99.90;;;;;;5085066;28;20089;-77
2023/01/23 02:12:35;;;;;;;3.42;2.10;;;3.00;99.90;;;;;;5054403;28;20059;-77
2023/01/23 02:15:05;;;;;;;3.83;1.75;;;3.00;99.90;;;;;;5065977;28;20494;-77
2023/01/23 02:17:34;;;;;;;6.47;2.75;;;3.00;99.90;;;;;;5067460;28;20032;-77
2023/01/23 02:20:20;;;;;;;2.90;1.80;;;2.90;99.90;;;;;;5070589;28;20388;-78
2023/01/23 02:23:09;;;;;;;3.92;1.70;;;3.00;99.90;;;;;;5069360;28;20043;-78
2023/01/23 02:25:44;;;;;;;2.70;1.60;;;3.00;99.90;;;;;;5053758;28;20032;-78
2023/01/23 02:28:11;;;;;;;2.58;1.70;;;3.00;99.90;;;;;;5099130;28;20040;-78
2023/01/23 02:30:41;;;;;;;3.83;1.63;;;2.90;99.90;;;;;;5099859;27;20052;-78
2023/01/23 02:33:19;;;;;;;3.60;1.98;;;3.00;99.90;;;;;;5062744;28;20064;-78
2023/01/23 02:35:45;;;;;;;3.38;1.65;;;3.00;99.90;;;;;;5057483;28;20043;-78
2023/01/23 02:38:11;;;;;;;4.63;2.08;;;3.00;99.90;;;;;;5068491;28;20391;-77
2023/01/23 02:40:39;;;;;;;5.93;1.80;;;3.00;99.90;;;;;;5069426;28;20048;-77
2023/01/23 02:43:09;;;;;;;3.00;1.83;;;3.00;99.90;;;;;;5051305;28;20032;-78
2023/01/23 02:45:35;;;;;;;4.78;2.60;;;3.00;99.90;;;;;;5057060;28;20060;-78
2023/01/23 02:48:04;;;;;;;4.35;2.17;;;3.00;99.90;;;;;;5061616;28;20041;-77
2023/01/23 02:50:30;;;;;;;3.72;1.95;;;3.00;99.90;;;;;;5055468;28;20035;-78
2023/01/23 02:52:57;;;;;;;2.97;1.73;;;2.90;99.90;;;;;;5077317;28;20032;-77
2023/01/23 02:55:25;;;;;;;4.97;2.40;;;3.00;99.90;;;;;;5068194;28;20048;-77
2023/01/23 02:57:51;;;;;;;7.40;2.20;;;3.00;99.90;;;;;;5049110;28;20094;-77
2023/01/23 03:00:21;;;;;;;6.47;2.35;;;3.00;99.90;;;;;;5071707;28;20044;-77
2023/01/23 03:02:48;;;;;;;4.38;2.58;;;3.00;99.90;;;;;;5066866;28;20047;-77
2023/01/23 03:05:17;;;;;;;3.25;1.73;;;3.00;99.90;;;;;;5070224;28;20120;-78
2023/01/23 03:07:43;;;;;;;6.25;2.15;;;3.00;99.90;;;;;;5058228;28;20051;-78
2023/01/23 03:10:10;;;;;;;7.32;2.33;;;3.00;99.90;;;;;;5065671;28;20040;-78
2023/01/23 03:12:42;;;;;;;4.47;1.70;;;3.00;99.90;;;;;;5069326;28;20097;-77
2023/01/23 03:15:09;;;;;;;7.25;1.73;;;3.00;99.90;;;;;;5083878;28;20051;-78
2023/01/23 03:17:35;;;;;;;5.07;2.03;;;3.00;99.90;;;;;;5063178;28;20039;-77
2023/01/23 03:20:02;;;;;;;6.72;2.47;;;3.00;99.90;;;;;;5068082;28;20544;-77
2023/01/23 03:22:27;;;;;;;6.28;2.50;;;3.00;99.90;;;;;;5050613;28;20394;-78
2023/01/23 03:24:54;;;;;;;4.32;2.15;;;3.00;99.90;;;;;;5065209;28;20309;-77
2023/01/23 03:27:20;;;;;;;3.00;1.55;;;3.00;99.90;;;;;;5067437;28;20064;-77
2023/01/23 03:32:30;;;;;;;4.68;2.15;;;3.00;99.90;;;;;;5065044;28;20502;-77
2023/01/23 03:34:56;;;;;;;3.47;2.13;;;3.00;99.90;;;;;;5064988;28;20039;-78
2023/01/23 03:37:21;;;;;;;3.67;2.05;;;3.00;99.90;;;;;;5056273;28;20024;-77
2023/01/23 03:42:34;;;;;;;4.45;2.22;;;3.00;99.90;;;;;;5065118;28;20076;-77
2023/01/23 03:45:01;;;;;;;3.80;1.92;;;3.00;99.90;;;;;;5068765;28;20033;-78
2023/01/23 03:47:26;;;;;;;5.82;2.08;;;3.00;99.90;;;;;;5066027;28;20124;-77
2023/01/23 03:49:52;;;;;;;4.20;2.40;;;3.00;99.90;;;;;;5061219;28;20126;-77
2023/01/23 03:52:18;;;;;;;6.10;2.85;;;3.00;99.90;;;;;;5049810;28;20220;-77
2023/01/23 03:54:44;;;;;;;6.60;1.92;;;3.00;99.90;;;;;;5049248;28;20035;-78
2023/01/23 03:57:10;;;;;;;4.15;2.10;;;3.00;99.90;;;;;;5057334;28;20037;-78
2023/01/23 03:59:35;;;;;;;4.82;2.08;;;3.00;99.90;;;;;;5065179;28;20033;-78
2023/01/23 04:02:03;;;;;;;4.45;2.47;;;3.00;99.90;;;;;;5067360;28;20116;-77
2023/01/23 04:04:33;;;;;;;3.75;2.17;;;3.00;99.90;;;;;;5050282;28;20107;-77
2023/01/23 04:06:59;;;;;;;5.20;2.70;;;3.00;99.90;;;;;;5065957;28;20047;-78
2023/01/23 04:09:26;;;;;;;4.68;2.70;;;3.00;99.90;;;;;;5065133;28;20028;-78
2023/01/23 04:11:53;;;;;;;5.07;2.33;;;3.00;99.90;;;;;;5050052;28;20497;-78
2023/01/23 04:14:20;;;;;;;5.90;2.40;;;3.00;99.90;;;;;;5065095;28;20071;-78
2023/01/23 04:16:46;;;;;;;2.13;1.23;;;2.90;99.90;;;;;;5049489;28;20413;-78
2023/01/23 04:19:12;;;;;;;4.65;2.17;;;3.00;99.90;;;;;;5064828;28;20037;-78
2023/01/23 04:21:38;;;;;;;4.03;2.22;;;3.00;99.90;;;;;;5069738;28;20036;-77
2023/01/23 04:24:04;;;;;;;5.75;2.78;;;3.00;99.90;;;;;;5057718;28;20089;-78
2023/01/23 04:26:29;;;;;;;7.38;2.40;;;3.00;99.90;;;;;;5054349;28;20130;-77
2023/01/23 04:28:55;;;;;;;3.92;2.15;;;3.00;99.90;;;;;;5053827;28;20043;-78
2023/01/23 04:31:20;;;;;;;3.10;1.83;;;3.00;99.90;;;;;;5064807;28;20504;-77
2023/01/23 04:33:46;;;;;;;3.38;1.73;;;3.00;99.90;;;;;;5055868;28;20036;-78
2023/01/23 04:36:12;;;;;;;5.60;2.55;;;3.00;99.90;;;;;;5050669;28;20025;-78
2023/01/23 04:38:38;;;;;;;4.47;2.47;;;3.00;99.90;;;;;;5067859;28;20123;-78
2023/01/23 04:41:04;;;;;;;3.85;1.80;;;2.90;99.90;;;;;;5047857;28;20070;-78
2023/01/23 04:43:29;;;;;;;6.05;2.58;;;3.00;99.90;;;;;;5059374;28;20405;-78
2023/01/23 04:45:55;;;;;;;4.47;2.40;;;2.90;99.90;;;;;;5064985;28;20071;-78
2023/01/23 04:48:22;;;;;;;5.22;2.60;;;2.90;99.90;;;;;;5064405;28;20478;-78
2023/01/23 04:50:48;;;;;;;4.00;2.33;;;3.00;99.90;;;;;;5079639;28;20511;-77
2023/01/23 04:53:14;;;;;;;4.10;2.00;;;3.00;99.90;;;;;;5066520;28;20139;-78
2023/01/23 04:55:40;;;;;;;6.53;2.33;;;3.00;99.90;;;;;;5066524;28;20115;-78
2023/01/23 04:58:05;;;;;;;3.47;2.28;;;3.00;99.90;;;;;;5060657;28;20152;-78
2023/01/23 05:00:31;;;;;;;5.25;1.75;;;2.90;99.90;;;;;;5064094;28;20039;-78
2023/01/23 05:02:57;;;;;;;3.85;2.00;;;2.90;99.90;;;;;;5070670;28;20075;-78
2023/01/23 05:05:24;;;;;;;6.47;2.42;;;3.00;99.90;;;;;;5058669;28;21811;-78
2023/01/23 05:07:50;;;;;;;4.45;2.40;;;3.00;99.90;;;;;;5074250;28;20033;-78
2023/01/23 05:10:16;;;;;;;5.15;2.70;;;2.90;99.90;;;;;;5068911;28;20075;-78
2023/01/23 05:12:42;;;;;;;6.22;2.80;;;3.00;99.90;;;;;;5054774;28;20040;-78
2023/01/23 05:15:09;;;;;;;4.97;2.38;;;3.00;99.90;;;;;;5068175;28;20033;-78
2023/01/23 05:17:34;;;;;;;4.05;2.20;;;3.00;99.90;;;;;;5064131;28;20140;-78
2023/01/23 05:20:00;;;;;;;7.18;2.47;;;3.00;99.90;;;;;;5065471;28;20119;-78
2023/01/23 05:22:26;;;;;;;4.28;2.63;;;3.00;99.90;;;;;;5069849;28;20051;-78
2023/01/23 05:24:51;;;;;;;4.47;2.42;;;3.00;99.90;;;;;;5053204;28;20066;-78
2023/01/23 05:27:17;;;;;;;4.38;2.45;;;3.00;99.90;;;;;;5068804;28;20051;-78
2023/01/23 05:29:43;;;;;;;7.38;3.90;;;3.00;99.90;;;;;;5063650;28;20040;-77
2023/01/23 05:32:08;;;;;;;3.78;2.17;;;3.00;99.90;;;;;;5059300;28;20052;-78
2023/01/23 05:34:34;;;;;;;4.72;1.60;;;2.90;99.90;;;;;;5053645;28;20060;-78
2023/01/23 05:36:59;;;;;;;4.70;1.80;;;3.00;99.90;;;;;;5056617;28;20028;-78
2023/01/23 05:39:25;;;;;;;3.65;1.92;;;3.00;99.90;;;;;;5063125;28;20082;-78
2023/01/23 05:41:51;;;;;;;2.88;1.67;;;3.00;99.90;;;;;;5067534;28;20045;-78
2023/01/23 05:44:17;;;;;;;7.13;2.20;;;2.90;99.90;;;;;;5054134;28;20164;-78
2023/01/23 05:46:42;;;;;;;5.28;2.55;;;3.00;99.90;;;;;;5070555;28;20482;-78
2023/01/23 05:49:08;;;;;;;3.00;1.95;;;2.90;99.90;;;;;;5071342;28;20125;-78
2023/01/23 05:51:34;;;;;;;4.60;1.98;;;3.00;99.90;;;;;;5068561;28;20042;-78
2023/01/23 05:54:00;;;;;;;5.03;2.42;;;3.00;99.90;;;;;;5072200;28;20032;-78
2023/01/23 05:56:26;;;;;;;4.53;1.92;;;2.90;99.90;;;;;;5052634;28;20062;-78
2023/01/23 05:58:52;;;;;;;5.13;2.33;;;2.90;99.90;;;;;;5069841;28;20036;-78
2023/01/23 06:01:19;;;;;;;4.68;2.50;;;3.00;99.90;;;;;;5073039;28;20036;-78
2023/01/23 06:03:45;;;;;;;4.88;2.20;;;2.90;99.90;;;;;;5058005;28;20062;-78
2023/01/23 06:06:11;;;;;;;5.15;2.45;;;2.90;99.90;;;;;;5069153;28;20217;-78
2023/01/23 06:08:37;;;;;;;4.93;2.40;;;2.90;99.90;;;;;;5074943;28;20261;-78
2023/01/23 06:11:02;;;;;;;5.18;3.00;;;3.00;99.90;;;;;;5075496;28;20289;-78
2023/01/23 06:13:28;;;;;;;3.00;1.90;;;2.90;99.90;;;;;;5061946;28;20055;-78
2023/01/23 06:15:55;;;;;;;6.45;2.28;;;2.90;99.90;;;;;;5055854;28;20036;-78
2023/01/23 06:18:20;;;;;;;4.03;2.00;;;2.90;99.90;;;;;;5052433;28;20119;-78
2023/01/23 06:20:46;;;;;;;4.38;2.30;;;3.00;99.90;;;;;;5052170;28;20131;-78
2023/01/23 06:23:12;;;;;;;6.32;2.83;;;2.90;99.90;;;;;;5063158;28;20553;-78
2023/01/23 06:25:38;;;;;;;4.40;2.38;;;3.00;99.90;;;;;;5082183;28;20029;-78
2023/01/23 06:28:04;;;;;;;5.03;2.60;;;3.00;99.90;;;;;;5068424;28;20032;-78
2023/01/23 06:30:29;;;;;;;5.15;2.58;;;2.90;99.90;;;;;;5058161;28;20056;-78
2023/01/23 06:32:55;;;;;;;5.60;2.38;;;2.90;99.90;;;;;;5054486;28;20033;-78
2023/01/23 06:35:21;;;;;;;4.85;2.80;;;3.00;99.90;;;;;;5057498;28;20075;-78
2023/01/23 06:37:47;;;;;;;8.30;3.55;;;3.00;99.90;;;;;;5079517;28;20039;-78
2023/01/23 06:40:13;;;;;;;7.22;3.45;;;3.00;99.90;;;;;;5066397;28;20322;-78
2023/01/23 06:42:40;;;;;;;5.25;2.33;;;2.90;99.90;;;;;;5069626;28;20046;-78
2023/01/23 06:45:07;;;;;;;4.80;2.97;;;2.90;99.90;;;;;;5085492;28;20505;-78
2023/01/23 06:47:32;;;;;;;4.13;2.38;;;3.00;99.90;;;;;;5071449;28;20494;-78
2023/01/23 06:49:58;;;;;;;5.45;2.45;;;2.90;99.90;;;;;;5060307;28;20071;-78
2023/01/23 06:52:24;;;;;;;5.45;2.55;;;3.00;99.90;;;;;;5066021;28;20039;-78
2023/01/23 06:54:49;;;;;;;4.43;2.08;;;2.90;99.90;;;;;;5065803;28;20310;-78
2023/01/23 06:57:15;;;;;;;4.00;2.38;;;2.90;99.90;;;;;;5050301;28;20028;-78
2023/01/23 06:59:40;;;;;;;6.38;2.35;;;2.90;99.90;;;;;;5067039;28;21249;-78
2023/01/23 07:02:09;;;;;;;5.07;2.85;;;3.00;99.90;;;;;;5071520;28;20043;-78
2023/01/23 07:04:34;;;;;;;5.78;2.70;;;2.90;99.90;;;;;;5053931;28;20050;-78
2023/01/23 07:07:00;;;;;;;5.68;2.38;;;3.00;99.90;;;;;;5059164;28;20036;-78
2023/01/23 07:09:25;;;;;;;5.45;2.45;;;2.90;99.90;;;;;;5051503;28;20035;-78
2023/01/23 07:11:51;;;;;;;3.40;1.42;;;3.00;99.90;;;;;;5064354;28;20056;-78
2023/01/23 07:14:17;;;;;;;5.32;2.42;;;2.90;99.90;;;;;;5077468;28;20462;-78
2023/01/23 07:16:42;;;;;;;9.88;3.30;;;2.90;99.90;;;;;;5059931;28;20101;-78
2023/01/23 07:19:08;;;;;;;6.90;3.65;;;3.00;99.90;;;;;;5053405;28;20032;-78
2023/01/23 07:21:34;;;;;;;4.13;1.88;;;3.00;99.90;;;;;;5056541;28;20032;-78
2023/01/23 07:23:59;;;;;;;6.60;3.33;;;3.00;99.90;;;;;;5087935;28;20048;-78
2023/01/23 07:26:25;;;;;;;5.70;2.10;;;3.00;99.90;;;;;;5065769;28;20033;-78
2023/01/23 07:28:50;;;;;;;4.10;2.40;;;3.00;99.90;;;;;;5060435;28;20040;-78
2023/01/23 07:31:16;;;;;;;4.65;2.00;;;3.00;99.90;;;;;;5053595;28;20067;-78
2023/01/23 07:33:42;;;;;;;4.85;2.15;;;3.00;99.90;;;;;;5076984;28;20036;-78
2023/01/23 07:36:08;;;;;;;5.22;2.45;;;3.00;99.90;;;;;;5069867;28;20494;-78
2023/01/23 07:38:33;;;;;;;4.10;2.45;;;3.00;99.90;;;;;;5072125;28;20047;-78
2023/01/23 07:40:59;;;;;;;2.95;1.50;;;3.00;99.90;;;;;;5073425;28;20044;-78
2023/01/23 07:43:26;;;;;;;5.15;2.38;;;3.00;99.90;;;;;;5052285;28;20037;-78
2023/01/23 07:45:52;;;;;;;5.63;2.10;;;3.10;99.90;;;;;;5079348;28;20040;-81
2023/01/23 07:48:17;;;;;;;4.78;2.53;;;3.00;99.90;;;;;;5069531;28;20036;-78
2023/01/23 07:50:43;;;;;;;5.35;1.90;;;3.00;99.90;;;;;;5072877;28;20501;-77
2023/01/23 07:53:09;;;;;;;3.97;2.00;;;3.00;99.90;;;;;;5075650;28;20032;-77
2023/01/23 07:55:37;;;;;;;5.82;2.65;;;3.00;99.90;;;;;;5069519;28;20044;-77
2023/01/23 07:58:02;;;;;;;6.80;2.20;;;3.00;99.90;;;;;;5073939;28;20071;-77
2023/01/23 08:00:28;;;;;;;4.75;2.30;;;3.00;99.90;;;;;;5059313;28;20056;-77
2023/01/23 08:02:54;;;;;;;4.72;1.88;;;3.10;99.90;;;;;;5059537;28;20048;-78
2023/01/23 08:05:20;;;;;;;6.10;3.15;;;3.00;99.90;;;;;;5080194;28;20494;-77
2023/01/23 08:07:45;;;;;;;4.20;2.05;;;3.00;99.90;;;;;;5068457;28;20044;-77
2023/01/23 08:10:11;;;;;;;5.18;2.53;;;3.00;99.90;;;;;;5067383;28;20033;-77
2023/01/23 08:12:37;;;;;;;3.33;1.90;;;3.00;99.90;;;;;;5067387;28;20123;-78
2023/01/23 08:15:03;;;;;;;3.78;1.85;;;3.00;99.90;;;;;;5071823;28;20123;-77
2023/01/23 08:17:29;;;;;;;4.13;1.92;;;3.00;99.90;;;;;;5068429;28;20047;-77
2023/01/23 08:19:54;;;;;;;5.65;1.92;;;3.00;99.90;;;;;;5072083;28;20409;-77
2023/01/23 08:22:20;;;;;;;4.25;2.00;;;3.00;99.90;;;;;;5067168;28;20093;-77
2023/01/23 08:24:47;;;;;;;5.38;2.10;;;3.00;99.90;;;;;;5065367;28;20033;-77
2023/01/23 08:27:12;;;;;;;5.18;2.15;;;3.00;99.90;;;;;;5073697;28;20041;-77
2023/01/23 08:29:38;;;;;;;3.25;1.85;;;3.00;99.90;;;;;;5050509;28;20036;-77
2023/01/23 08:32:04;;;;;;;4.15;2.50;;;3.00;99.90;;;;;;5070176;28;20041;-77
2023/01/23 08:34:29;;;;;;;3.50;1.60;;;3.00;99.90;;;;;;5071780;28;20050;-77
2023/01/23 08:36:55;;;;;;;4.20;1.90;;;3.10;99.90;;;;;;5074359;28;20032;-78
2023/01/23 08:39:20;;;;;;;4.15;2.03;;;3.10;99.90;;;;;;5071212;28;20059;-78
2023/01/23 08:41:46;;;;;;;4.85;2.13;;;3.00;99.90;;;;;;5076167;28;20051;-77
2023/01/23 08:44:12;;;;;;;5.45;1.90;;;3.10;99.90;;;;;;5078312;28;20037;-77
2023/01/23 08:46:37;;;;;;;4.72;2.13;;;3.10;99.90;;;;;;5054726;28;20328;-77
2023/01/23 08:49:04;;;;;;;5.53;1.90;;;3.10;99.90;;;;;;5055797;28;20178;-77
2023/01/23 08:51:30;;;;;;;4.03;2.28;;;3.10;99.90;;;;;;5073685;28;20094;-78
2023/01/23 08:53:55;;;;;;;3.35;1.77;;;3.10;99.90;;;;;;5060302;28;20036;-77
2023/01/23 08:56:22;;;;;;;3.83;1.73;;;3.10;99.90;;;;;;5068395;28;20044;-78
2023/01/23 08:58:49;;;;;;;4.90;1.98;;;3.10;99.90;;;;;;5057960;28;20505;-78
2023/01/23 09:01:18;;;;;;;4.32;1.70;;;3.20;99.90;;;;;;5070300;28;20045;-78
2023/01/23 09:03:44;;;;;;;3.75;1.88;;;3.20;99.90;;;;;;5073617;28;20052;-78
2023/01/23 09:06:11;;;;;;;6.30;2.10;;;3.20;99.90;;;;;;5054992;28;20330;-78
2023/01/23 09:08:36;;;;;;;2.90;1.63;;;3.20;99.90;;;;;;5094563;27;20044;-78
2023/01/23 09:11:05;;;;;;;3.55;2.03;;;3.20;99.90;;;;;;5075659;28;20048;-78
2023/01/23 09:13:31;;;;;;;5.03;2.20;;;3.20;99.90;;;;;;5074136;28;20036;-77
2023/01/23 09:15:57;;;;;;;4.90;1.40;;;3.20;99.90;;;;;;5055380;28;20203;-78
2023/01/23 09:18:24;;;;;;;2.67;1.30;;;3.20;99.90;;;;;;5070085;28;20281;-78
2023/01/23 09:20:50;;;;;;;4.97;2.10;;;3.20;99.90;;;;;;5056954;28;20032;-78
2023/01/23 09:23:16;;;;;;;4.55;1.88;;;3.30;99.90;;;;;;5054748;28;20040;-78
2023/01/23 09:25:42;;;;;;;3.78;2.30;;;3.30;99.90;;;;;;5067253;28;20051;-78
2023/01/23 09:28:07;;;;;;;3.40;1.80;;;3.30;99.90;;;;;;5072849;28;20406;-77
2023/01/23 09:30:33;;;;;;;2.88;1.52;;;3.30;99.90;;;;;;5070363;28;20028;-78
2023/01/23 09:32:59;;;;;;;3.22;2.03;;;3.30;99.90;;;;;;5089986;28;20501;-79
2023/01/23 09:35:25;;;;;;;5.13;2.33;;;3.30;99.90;;;;;;5081971;28;20044;-78
2023/01/23 09:38:01;;;;;;;5.53;2.58;;;3.40;99.90;;;;;;5069732;28;20040;-78
2023/01/23 09:40:31;;;;;;;;;;;3.30;99.90;;;;;;5078370;28;20044;-78
2023/01/23 09:43:20;;;;;;;3.45;1.95;;;3.30;99.90;;;;;;5067830;28;20248;-78
2023/01/23 09:46:23;;;;;;;5.38;1.92;;;3.40;99.90;;;;;;5072583;28;20084;-78
2023/01/23 09:48:58;;;;;;;3.78;2.20;;;3.40;99.90;;;;;;5072536;28;20398;-78
2023/01/23 09:52:02;;;;;;;5.28;2.08;;;3.40;99.90;;;;;;5068398;28;20041;-78
2023/01/23 09:54:33;;;;;;;4.22;1.95;;;3.40;99.90;;;;;;5071615;28;20048;-78
2023/01/23 09:57:03;;;;;;;5.30;1.80;;;3.40;99.90;;;;;;5068460;28;20032;-79
2023/01/23 09:59:35;;;;;;;4.72;2.30;;;3.40;99.90;;;;;;5069095;28;20047;-78
2023/01/23 10:02:01;;;;;;;5.47;2.28;;;3.50;99.90;;;;;;5053295;28;20068;-78
2023/01/23 10:04:28;;;;;;;5.13;2.47;;;3.50;99.90;;;;;;5071160;28;20071;-78
2023/01/23 10:07:15;;;;;;;7.20;3.22;;;3.40;99.90;;;;;;5067657;28;20508;-78
2023/01/23 10:10:00;;;;;;;6.22;2.22;;;3.50;99.90;;;;;;5057439;28;20040;-78
2023/01/23 10:12:55;;;;;;;8.32;3.95;;;3.50;99.90;;;;;;5052155;28;20118;-78
2023/01/23 10:15:52;;;;;;;10.30;4.07;;;3.50;99.90;;;;;;5088113;28;20043;-78
2023/01/23 10:18:27;;;;;;;;;;;3.50;99.90;;;;;;5079778;28;21158;-78
2023/01/23 10:20:52;;;;;;;3.33;1.42;;;3.50;99.90;;;;;;5074180;28;19916;-76
2023/01/23 10:23:33;;;;;;;10.35;2.50;;;3.50;99.90;;;;;;5053620;28;20054;-76
2023/01/23 10:26:02;;;;;;;5.63;2.22;;;3.60;99.90;;;;;;5066773;28;20036;-77
2023/01/23 10:28:37;;;;;;;5.78;2.30;;;3.50;99.90;;;;;;5053448;28;20028;-77
2023/01/23 10:31:32;;;;;;;3.77;1.60;;;3.60;99.90;;;;;;5059451;28;20043;-78
2023/01/23 10:34:10;;;;;;;5.95;2.72;;;3.60;99.90;;;;;;5071097;28;20296;-79
2023/01/23 10:36:47;;;;;;;8.48;2.22;;;3.60;99.90;;;;;;5090957;28;20040;-79
2023/01/23 10:39:17;;;;;;;5.20;2.03;;;3.60;99.90;;;;;;5070044;28;20525;-78
2023/01/23 10:41:44;;;;;;;3.65;1.75;;;3.60;99.90;;;;;;5056034;28;20044;-77
2023/01/23 10:44:21;;;;;;;3.00;1.65;;;3.60;99.90;;;;;;5056447;28;20493;-77
2023/01/23 10:46:49;;;;;;;5.25;1.65;;;3.60;99.90;;;;;;5053123;28;20040;-77
2023/01/23 10:49:39;;;;;;;2.80;1.13;;;3.60;99.90;;;;;;5067485;28;20037;-77
2023/01/23 10:52:36;;;;;;;2.97;1.73;;;3.60;99.90;;;;;;5076467;28;20040;-76
2023/01/23 10:55:28;;;;;;;4.13;2.22;;;3.60;99.90;;;;;;5059549;28;20248;-76
2023/01/23 10:57:58;;;;;;;3.17;1.63;;;3.60;99.90;;;;;;5089304;28;20043;-77
2023/01/23 11:00:35;;;;;;;4.50;2.20;;;3.60;99.90;;;;;;5083544;28;20412;-76
2023/01/23 11:03:19;;;;;;;3.42;1.85;;;3.60;99.90;;;;;;5059923;28;20038;-77
2023/01/23 11:05:53;;;;;;;5.72;1.90;;;3.60;99.90;;;;;;5076503;28;20044;-76
2023/01/23 11:08:41;;;;;;;3.92;1.65;;;3.60;99.90;;;;;;5069217;28;20446;-76
2023/01/23 11:11:13;;;;;;;3.08;1.58;;;3.60;99.90;;;;;;5060647;28;20489;-76
2023/01/23 11:13:39;;;;;;;2.88;1.50;;;3.60;99.90;;;;;;5057888;28;20036;-77
2023/01/23 11:16:05;;;;;;;4.10;1.65;;;3.60;99.90;;;;;;5080665;28;20616;-76
2023/01/23 11:18:38;;;;;;;3.28;1.95;;;3.50;99.90;;;;;;5053387;28;20059;-76
2023/01/23 11:21:04;;;;;;;5.13;2.00;;;3.60;99.90;;;;;;5076342;28;20040;-76
2023/01/23 11:23:32;;;;;;;6.75;1.98;;;3.60;99.90;;;;;;5073213;28;20133;-77
2023/01/23 11:25:57;;;;;;;3.88;1.73;;;3.60;99.90;;;;;;5076665;28;20096;-77
2023/01/23 11:28:26;;;;;;;5.05;1.75;;;3.60;99.90;;;;;;5077499;28;20040;-76
2023/01/23 11:31:12;;;;;;;2.58;1.50;;;3.60;99.90;;;;;;5080122;28;20055;-77
2023/01/23 11:33:53;;;;;;;4.07;2.28;;;3.60;99.90;;;;;;5088768;28;20038;-76
2023/01/23 11:36:37;;;;;;;4.10;2.20;;;3.60;99.90;;;;;;5072024;28;20036;-77
2023/01/23 11:39:30;;;;;;;4.85;1.85;;;3.60;99.90;;;;;;5065754;28;20032;-77
2023/01/23 11:41:56;;;;;;;9.73;4.05;;;3.70;99.90;;;;;;5086898;28;20082;-77
2023/01/23 11:44:23;;;;;;;5.15;2.45;;;3.60;99.90;;;;;;5065891;28;20546;-77
2023/01/23 11:46:57;;;;;;;4.25;2.13;;;3.60;99.90;;;;;;5049770;28;20041;-77
2023/01/23 11:49:57;;;;;;;3.90;1.85;;;3.60;99.90;;;;;;5069366;28;20414;-77
2023/01/23 11:52:41;;;;;;;6.65;2.22;;;3.70;99.90;;;;;;5069791;28;20032;-78
2023/01/23 11:55:28;;;;;;;3.60;1.80;;;3.70;99.90;;;;;;5073130;28;20040;-77
2023/01/23 11:58:20;;;;;;;3.03;1.42;;;3.70;99.90;;;;;;5053720;28;20658;-78
2023/01/23 12:01:08;;;;;;;4.43;2.10;;;3.70;99.90;;;;;;5053304;28;20036;-77
2023/01/23 12:03:53;;;;;;;3.33;1.75;;;3.70;99.90;;;;;;5070360;28;20293;-79
2023/01/23 12:06:27;;;;;;;7.25;2.17;;;3.70;99.90;;;;;;5052070;28;20036;-77
2023/01/23 12:09:09;;;;;;;4.10;1.92;;;3.70;99.90;;;;;;5078974;28;20040;-78
2023/01/23 12:11:49;;;;;;;4.32;2.30;;;3.70;99.90;;;;;;5071631;28;20059;-77
2023/01/23 12:14:20;;;;;;;7.55;2.10;;;3.70;99.90;;;;;;5071753;28;20040;-77
2023/01/23 12:17:07;;;;;;;5.63;2.33;;;3.70;99.90;;;;;;5061792;28;20044;-77
2023/01/23 12:20:01;;;;;;;4.93;1.52;;;3.70;99.90;;;;;;5077674;28;20044;-77
2023/01/23 12:22:32;;;;;;;5.18;2.00;;;3.70;99.90;;;;;;5071168;28;20138;-76
2023/01/23 12:25:28;;;;;;;5.03;2.47;;;3.70;99.90;;;;;;5056903;28;20131;-78
2023/01/23 12:28:08;;;;;;;4.10;2.20;;;3.70;99.90;;;;;;5071666;28;20036;-78
2023/01/23 12:30:52;;;;;;;4.88;2.15;;;3.70;99.90;;;;;;5062751;28;20050;-82
2023/01/23 12:33:47;;;;;;;8.73;2.90;;;3.70;99.90;;;;;;5072641;28;20040;-77
2023/01/23 12:36:27;;;;;;;5.85;2.67;;;3.70;99.90;;;;;;5074737;28;20059;-77
2023/01/23 12:39:08;;;;;;;5.13;2.58;;;3.70;99.90;;;;;;5090812;28;20068;-77
2023/01/23 12:41:39;;;;;;;5.50;3.05;;;3.80;99.90;;;;;;5060583;28;20344;-77
2023/01/23 12:44:21;;;;;;;5.63;2.83;;;3.80;99.90;;;;;;5086078;28;20052;-77
2023/01/23 12:47:02;;;;;;;6.30;2.60;;;3.80;99.90;;;;;;5091584;28;20512;-77
2023/01/23 12:49:52;;;;;;;7.20;2.97;;;3.80;99.90;;;;;;5073903;28;20031;-77
2023/01/23 12:52:27;;;;;;;7.63;2.38;;;3.80;99.90;;;;;;5091216;28;20493;-77
2023/01/23 12:55:26;;;;;;;5.07;2.20;;;3.80;99.90;;;;;;5056646;28;20048;-77
2023/01/23 12:57:55;;;;;;;7.25;2.90;;;3.80;99.90;;;;;;5057188;28;20041;-77
2023/01/23 13:00:44;;;;;;;5.13;2.50;;;3.80;99.90;;;;;;5081345;28;20404;-77
2023/01/23 13:03:28;;;;;;;7.50;2.33;;;3.80;99.90;;;;;;5074253;28;20055;-77
2023/01/23 13:06:00;;;;;;;7.05;3.20;;;3.80;99.90;;;;;;5090506;28;20489;-77
2023/01/23 13:08:48;;;;;;;6.13;2.97;;;3.80;99.90;;;;;;5069972;28;20117;-77
2023/01/23 13:11:40;;;;;;;7.05;3.35;;;3.80;99.90;;;;;;5085045;28;20040;-77
2023/01/23 13:14:22;;;;;;;5.32;2.72;;;3.80;99.90;;;;;;5088916;28;20119;-77
2023/01/23 13:16:50;;;;;;;6.53;2.58;;;3.80;99.90;;;;;;5079206;28;20082;-77
2023/01/23 13:22:23;;;;;;;4.33;2.30;;;3.80;99.90;;;;;;5089174;28;20043;-78